This is the latest recevied weather packets stored in our database for station/object WB5NHL-13. If no packets are shown the sender has not sent any weather packets the latest 10 day(s).
| Time | Temp. | Humidity | Pressure | Rain* | Wind** | Luminosity | Snow |
|---|---|---|---|---|---|---|---|
| 1777889733 | 10° C | 99% | 1017.5 hPa | 0 mm | - | - | - |
| 1777887923 | 10° C | 99% | 1017.3 hPa | 0 mm | - | - | - |
| 1777886717 | 10.56° C | 99% | 1017.5 hPa | 0 mm | - | - | - |
| 1777883128 | 11.11° C | 98% | 1017.4 hPa | 0 mm | - | - | - |
| 1777880145 | 11.67° C | 94% | 1017.1 hPa | 0 mm | - | - | - |
| 1777878951 | 11.67° C | 93% | 1017.3 hPa | 0 mm | - | - | - |
| 1777877122 | 11.67° C | 92% | 1017.7 hPa | 0 mm | - | - | - |
| 1777875318 | 11.67° C | 90% | 1017.8 hPa | 0 mm | - | - | - |
| 1777872924 | 11.67° C | 88% | 1017.7 hPa | 0 mm | - | - | - |
| 1777872327 | 11.67° C | 88% | 1017.8 hPa | 0 mm | - | - | - |
| 1777863919 | 12.78° C | 86% | 1017.5 hPa | 0 mm | - | - | - |
| 1777863316 | 12.78° C | 86% | 1017.3 hPa | 0 mm | - | - | - |
| 1777859118 | 14.44° C | 77% | 1016.8 hPa | 0 mm | - | - | - |
| 1777854921 | 17.22° C | 62% | 1015.9 hPa | 0 mm | - | - | - |
| 1777853123 | 18.89° C | 59% | 1015.8 hPa | 0 mm | - | - | - |
| 1777848316 | 21.67° C | 43% | 1016 hPa | 0 mm | - | - | - |
| 1777847719 | 21.67° C | 45% | 1016.1 hPa | 0 mm | - | - | - |
| 1777842924 | 23.33° C | 40% | 1016.2 hPa | 0 mm | - | - | - |
| 1777839920 | 23.89° C | 37% | 1016.5 hPa | 0 mm | - | - | - |
| 1777839323 | 23.89° C | 39% | 1016.6 hPa | 0 mm | - | - | - |
| 1777832719 | 22.78° C | 39% | 1018.6 hPa | 0 mm | - | - | - |
| 1777828517 | 21.11° C | 49% | 1018.8 hPa | 0 mm | - | - | - |
| 1777823726 | 17.22° C | 71% | 1019.9 hPa | 0 mm | - | - | - |
| 1777823130 | 17.22° C | 73% | 1019.9 hPa | 0 mm | - | - | - |
| 1777821916 | 16.11° C | 78% | 1020 hPa | 0 mm | - | - | - |
* Rain latest hour (hover to see other rain measurements)
** Current wind speed in m/s (hover to see current wind gust speed)